Time;durP1;ratioP1;P1;durP2;ratioP2;P2;SDS_P1;SDS_P2;PMS_P1;PMS_P2;Temp;Humidity;BMP_temperature;BMP_pressure;BME280_temperature;BME280_humidity;BME280_pressure;Samples;Min_cycle;Max_cycle;Signal;HPM_P1;HPM_P2
2022/09/11 00:01:39;;;;;;;2.88;2.10;;;14.60;99.90;;;;;;4771367;30;20079;-90
2022/09/11 00:04:05;;;;;;;3.20;2.05;;;14.80;99.90;;;;;;4772002;30;20069;-86
2022/09/11 00:06:30;;;;;;;2.92;2.22;;;14.60;99.90;;;;;;4773059;29;20412;-89
2022/09/11 00:09:02;;;;;;;3.42;2.15;;;14.50;99.90;;;;;;4775446;30;20047;-86
2022/09/11 00:11:30;;;;;;;2.60;1.92;;;14.50;99.90;;;;;;4777669;30;20051;-86
2022/09/11 00:13:57;;;;;;;5.25;3.78;;;14.40;99.90;;;;;;4775363;30;20609;-85
2022/09/11 00:16:26;;;;;;;3.65;2.30;;;14.50;99.90;;;;;;4777341;30;20400;-87
2022/09/11 00:18:55;;;;;;;3.42;2.20;;;14.50;99.90;;;;;;4770991;30;20060;-86
2022/09/11 00:21:24;;;;;;;3.40;1.85;;;14.50;99.90;;;;;;4772905;30;20084;-86
2022/09/11 00:23:50;;;;;;;3.50;2.08;;;14.40;99.90;;;;;;4774302;30;20125;-87
2022/09/11 00:26:17;;;;;;;3.40;1.98;;;14.40;99.90;;;;;;4778809;30;20052;-87
2022/09/11 00:28:44;;;;;;;3.42;2.22;;;14.40;99.90;;;;;;4764676;30;20066;-89
2022/09/11 00:31:16;;;;;;;4.60;3.33;;;14.40;99.90;;;;;;4772899;30;20047;-91
2022/09/11 00:33:43;;;;;;;3.60;2.67;;;14.90;99.90;;;;;;4773070;30;20383;-93
2022/09/11 00:36:15;;;;;;;9.13;3.92;;;14.40;99.90;;;;;;4776736;30;20058;-91
2022/09/11 00:38:41;;;;;;;7.63;2.40;;;14.40;99.90;;;;;;4772026;30;20047;-93
2022/09/11 00:41:12;;;;;;;4.45;2.20;;;14.40;99.90;;;;;;4781576;30;20052;-91
2022/09/11 00:43:58;;;;;;;4.15;2.60;;;14.50;99.90;;;;;;4770280;30;20557;-89
2022/09/11 00:46:35;;;;;;;3.75;2.28;;;14.20;99.90;;;;;;4771769;30;20123;-91
2022/09/11 00:49:10;;;;;;;4.28;2.67;;;14.30;99.90;;;;;;4784389;30;20047;-87
2022/09/11 00:51:36;;;;;;;;;;;14.30;99.90;;;;;;4771409;30;20047;-90
2022/09/11 00:54:03;;;;;;;4.43;2.67;;;14.20;99.90;;;;;;4774336;30;20430;-87
2022/09/11 00:56:34;;;;;;;3.22;2.20;;;14.20;99.90;;;;;;4774770;30;20107;-90
2022/09/11 00:59:01;;;;;;;3.03;1.77;;;14.40;99.90;;;;;;4770594;30;20052;-86
2022/09/11 01:01:27;;;;;;;3.60;2.03;;;14.30;99.90;;;;;;4775582;30;20552;-85
2022/09/11 01:03:54;;;;;;;2.55;1.55;;;14.70;99.90;;;;;;4776184;29;20154;-86
2022/09/11 01:06:21;;;;;;;3.10;2.03;;;14.20;99.90;;;;;;4764714;30;20048;-86
2022/09/11 01:08:47;;;;;;;3.25;1.85;;;14.20;99.90;;;;;;4770428;30;20048;-86
2022/09/11 01:11:38;;;;;;;2.53;1.67;;;14.20;99.90;;;;;;4769655;30;20049;-89
2022/09/11 01:14:30;;;;;;;3.67;2.10;;;14.20;99.90;;;;;;4776204;30;20083;-85
2022/09/11 01:17:09;;;;;;;4.45;2.30;;;14.20;99.90;;;;;;4755098;30;20052;-86
2022/09/11 01:23:26;;;;;;;3.08;1.85;;;13.50;99.90;;;;;;4775385;30;20052;-86
2022/09/11 01:26:00;;;;;;;2.60;1.60;;;14.10;99.90;;;;;;4769813;30;20052;-85
2022/09/11 01:28:42;;;;;;;2.63;1.60;;;14.50;99.90;;;;;;4770289;30;20459;-87
2022/09/11 01:31:11;;;;;;;2.58;1.77;;;14.10;99.90;;;;;;4768600;30;20051;-87
2022/09/11 01:34:08;;;;;;;2.28;1.30;;;14.10;99.90;;;;;;4768137;30;20048;-85
2022/09/11 01:36:46;;;;;;;2.90;1.55;;;14.00;99.90;;;;;;4729911;30;20088;-87
2022/09/11 01:39:16;;;;;;;2.47;1.65;;;14.00;99.90;;;;;;4748923;30;20083;-85
2022/09/11 01:42:13;;;;;;;2.80;1.95;;;14.00;99.90;;;;;;4734856;30;20083;-86
2022/09/11 01:44:52;;;;;;;2.17;1.50;;;14.00;99.90;;;;;;4679986;30;20065;-86
2022/09/11 01:47:19;;;;;;;2.05;1.48;;;14.00;99.90;;;;;;4679978;30;20062;-86
2022/09/11 01:50:29;;;;;;;3.47;1.73;;;14.20;99.90;;;;;;4680303;30;20070;-87
2022/09/11 01:53:00;;;;;;;2.78;1.70;;;14.00;99.90;;;;;;4690595;30;20058;-86
2022/09/11 01:55:50;;;;;;;2.38;1.52;;;14.10;99.90;;;;;;4671927;30;20111;-86
2022/09/11 01:58:27;;;;;;;3.58;1.83;;;14.00;99.90;;;;;;4679752;30;20096;-87
2022/09/11 02:00:58;;;;;;;3.42;1.95;;;14.00;99.90;;;;;;4680002;30;20560;-85
2022/09/11 02:03:35;;;;;;;4.20;2.40;;;14.20;99.90;;;;;;4679812;30;20514;-85
2022/09/11 02:06:11;;;;;;;3.70;2.50;;;14.90;99.90;;;;;;4665740;30;20390;-88
2022/09/11 02:08:45;;;;;;;3.42;1.88;;;14.00;99.90;;;;;;4665820;30;20107;-86
2022/09/11 02:11:14;;;;;;;2.70;1.83;;;14.00;99.90;;;;;;4665596;30;20050;-86
2022/09/11 02:14:06;;;;;;;2.70;1.70;;;14.40;99.90;;;;;;4695911;30;20087;-86
2022/09/11 02:16:49;;;;;;;3.08;1.98;;;14.00;99.90;;;;;;4732423;30;20062;-85
2022/09/11 02:19:18;;;;;;;3.67;1.63;;;14.20;99.90;;;;;;4711109;30;20510;-85
2022/09/11 02:21:46;;;;;;;2.90;1.52;;;14.00;99.90;;;;;;4748903;29;1116606;-86
2022/09/11 02:24:13;;;;;;;3.00;2.00;;;14.00;99.90;;;;;;4772265;30;20512;-87
2022/09/11 02:26:46;;;;;;;2.90;1.75;;;14.80;99.90;;;;;;4753864;30;20152;-86
2022/09/11 02:29:13;;;;;;;4.90;2.42;;;14.00;99.90;;;;;;4765818;30;20051;-87
2022/09/11 02:31:40;;;;;;;3.42;2.10;;;14.80;99.90;;;;;;4768826;30;20076;-86
2022/09/11 02:34:06;;;;;;;2.45;1.55;;;14.40;99.90;;;;;;4775696;30;20143;-88
2022/09/11 02:36:31;;;;;;;2.97;1.65;;;14.10;99.90;;;;;;4767343;30;20146;-86
2022/09/11 02:39:00;;;;;;;1.88;1.20;;;14.00;99.90;;;;;;4768568;30;20105;-86
2022/09/11 02:41:36;;;;;;;2.03;1.50;;;14.00;99.90;;;;;;4753672;30;20485;-86
2022/09/11 02:44:10;;;;;;;2.00;1.33;;;14.00;99.90;;;;;;4763730;30;20067;-85
2022/09/11 02:46:53;;;;;;;2.47;1.67;;;14.00;99.90;;;;;;4769750;30;20469;-85
2022/09/11 02:49:53;;;;;;;2.63;1.70;;;14.60;99.90;;;;;;4769570;30;20521;-85
2022/09/11 02:52:25;;;;;;;2.28;1.30;;;13.40;99.90;;;;;;4768250;30;20051;-88
2022/09/11 02:55:12;;;;;;;2.33;1.55;;;14.00;99.90;;;;;;4768454;30;20052;-85
2022/09/11 02:57:49;;;;;;;2.83;1.50;;;13.90;99.90;;;;;;4771887;30;20136;-86
2022/09/11 03:00:15;;;;;;;3.05;1.90;;;13.90;99.90;;;;;;4785734;29;20035;-86
2022/09/11 03:02:42;;;;;;;1.90;1.38;;;13.90;99.90;;;;;;4771289;30;20044;-84
2022/09/11 03:05:10;;;;;;;3.13;1.65;;;13.90;99.90;;;;;;4769382;30;20130;-88
2022/09/11 03:07:36;;;;;;;2.50;1.38;;;14.10;99.90;;;;;;4767988;30;20048;-86
2022/09/11 03:10:02;;;;;;;2.30;1.40;;;13.80;99.90;;;;;;4775344;30;20048;-85
2022/09/11 03:12:28;;;;;;;1.50;1.10;;;13.80;99.90;;;;;;4769666;30;20048;-85
2022/09/11 03:14:53;;;;;;;1.63;1.10;;;13.90;99.90;;;;;;4769034;30;20093;-86
2022/09/11 03:17:20;;;;;;;1.42;1.00;;;13.80;99.90;;;;;;4768116;30;20043;-85
2022/09/11 03:19:46;;;;;;;1.58;1.20;;;13.80;99.90;;;;;;4753154;30;20051;-87
2022/09/11 03:22:13;;;;;;;2.53;1.40;;;13.80;99.90;;;;;;4769190;30;20058;-85
2022/09/11 03:24:39;;;;;;;2.42;1.88;;;13.80;99.90;;;;;;4765498;30;20063;-85
2022/09/11 03:27:05;;;;;;;2.30;1.20;;;13.70;99.90;;;;;;4777572;30;20044;-85
2022/09/11 03:29:32;;;;;;;1.25;1.10;;;13.80;99.90;;;;;;4771425;30;20047;-86
2022/09/11 03:31:58;;;;;;;1.77;1.25;;;13.70;99.90;;;;;;4756932;30;20047;-86
2022/09/11 03:34:27;;;;;;;1.50;0.90;;;13.80;99.90;;;;;;4756704;30;20561;-87
2022/09/11 03:36:53;;;;;;;1.88;1.20;;;13.80;99.90;;;;;;4771027;30;20044;-85
2022/09/11 03:39:18;;;;;;;2.05;1.23;;;13.70;99.90;;;;;;4765495;30;20058;-89
2022/09/11 03:41:44;;;;;;;2.50;1.40;;;13.70;99.90;;;;;;4772663;30;20125;-85
2022/09/11 03:44:11;;;;;;;1.80;1.40;;;13.70;99.90;;;;;;4779323;30;20409;-86
2022/09/11 03:46:38;;;;;;;2.80;1.50;;;13.60;99.90;;;;;;4756382;30;20055;-85
2022/09/11 03:49:05;;;;;;;2.42;1.60;;;13.60;99.90;;;;;;4777813;30;20059;-85
2022/09/11 03:51:31;;;;;;;5.20;1.75;;;13.60;99.90;;;;;;4772324;30;20522;-86
2022/09/11 03:54:01;;;;;;;3.35;1.70;;;13.60;99.90;;;;;;4772247;30;20047;-87
2022/09/11 03:56:29;;;;;;;2.83;1.83;;;13.60;99.90;;;;;;4758303;30;20527;-85
2022/09/11 03:58:56;;;;;;;3.47;2.10;;;13.60;99.90;;;;;;4777199;30;20629;-87
2022/09/11 04:01:23;;;;;;;2.83;1.70;;;13.60;99.90;;;;;;4770818;30;20131;-86
2022/09/11 04:03:49;;;;;;;2.55;2.05;;;13.60;99.90;;;;;;4771724;30;20047;-85
2022/09/11 04:06:15;;;;;;;2.25;1.40;;;13.70;99.90;;;;;;4770230;30;20109;-87
2022/09/11 04:08:41;;;;;;;1.98;1.33;;;13.50;99.90;;;;;;4772615;30;20052;-86
2022/09/11 04:11:10;;;;;;;1.50;1.00;;;13.50;99.90;;;;;;4774135;30;20130;-85
2022/09/11 04:13:37;;;;;;;2.63;1.65;;;13.50;99.90;;;;;;4772242;30;20052;-86
2022/09/11 04:16:13;;;;;;;2.83;1.67;;;13.50;99.90;;;;;;4772581;30;20201;-89
2022/09/11 04:18:41;;;;;;;2.60;1.60;;;13.50;99.90;;;;;;4758129;30;20098;-85
2022/09/11 04:21:09;;;;;;;2.22;1.50;;;13.50;99.90;;;;;;4772738;30;20044;-84
2022/09/11 04:23:36;;;;;;;1.95;1.40;;;13.50;99.90;;;;;;4775350;29;20078;-87
2022/09/11 04:26:02;;;;;;;1.95;1.20;;;13.50;99.90;;;;;;4792114;29;20051;-84
2022/09/11 04:28:30;;;;;;;2.25;1.50;;;13.50;99.90;;;;;;4773572;30;20043;-85
2022/09/11 04:31:02;;;;;;;2.53;1.48;;;13.40;99.90;;;;;;4789418;29;20082;-86
2022/09/11 04:33:28;;;;;;;3.05;1.70;;;13.40;99.90;;;;;;4777188;30;20505;-85
2022/09/11 04:35:54;;;;;;;1.73;1.30;;;13.40;99.90;;;;;;4772891;30;20047;-84
2022/09/11 04:38:21;;;;;;;2.10;1.40;;;13.40;99.90;;;;;;4788816;29;20085;-86
2022/09/11 04:40:48;;;;;;;1.88;1.33;;;13.30;99.90;;;;;;4773239;30;20051;-84
2022/09/11 04:43:16;;;;;;;1.50;1.00;;;13.50;99.90;;;;;;4774077;29;20051;-85
2022/09/11 04:45:42;;;;;;;3.03;1.60;;;13.30;99.90;;;;;;4773164;30;20130;-85
2022/09/11 04:48:08;;;;;;;2.22;1.50;;;13.20;99.90;;;;;;4774654;29;20387;-86
2022/09/11 04:50:34;;;;;;;2.17;1.52;;;13.40;99.90;;;;;;4789532;29;20059;-85
2022/09/11 04:52:59;;;;;;;2.63;1.70;;;13.10;99.90;;;;;;4789509;29;20047;-84
2022/09/11 04:55:25;;;;;;;2.38;1.65;;;13.70;99.90;;;;;;4772477;29;20062;-85
2022/09/11 04:57:52;;;;;;;2.72;1.95;;;13.10;99.90;;;;;;4779590;30;20043;-88
2022/09/11 05:00:18;;;;;;;2.30;1.45;;;13.10;99.90;;;;;;4772791;29;20073;-84
2022/09/11 05:02:44;;;;;;;1.40;1.25;;;13.10;99.90;;;;;;4778887;29;20055;-85
2022/09/11 05:09:26;;;;;;;1.70;1.20;;;13.10;99.90;;;;;;4788991;29;20074;-85
2022/09/11 05:11:52;;;;;;;1.55;1.10;;;13.10;99.90;;;;;;4788729;29;20043;-86
2022/09/11 05:14:17;;;;;;;1.65;1.10;;;13.10;99.90;;;;;;4773181;29;20104;-86
2022/09/11 05:16:44;;;;;;;1.88;0.93;;;13.10;99.90;;;;;;4779966;30;20409;-85
2022/09/11 05:19:10;;;;;;;1.33;0.93;;;13.10;99.90;;;;;;4773280;30;20062;-86
2022/09/11 05:21:36;;;;;;;1.48;0.90;;;13.10;99.90;;;;;;4778968;29;20087;-89
2022/09/11 05:24:02;;;;;;;1.65;0.85;;;13.10;99.90;;;;;;4777899;29;20501;-85
2022/09/11 05:26:30;;;;;;;1.63;1.08;;;13.10;99.90;;;;;;4779312;29;20048;-87
2022/09/11 05:28:58;;;;;;;0.98;0.80;;;13.10;99.90;;;;;;4788975;29;20054;-88
2022/09/11 05:31:25;;;;;;;1.73;0.85;;;13.20;99.90;;;;;;4779554;29;20047;-85
2022/09/11 05:33:52;;;;;;;1.00;0.80;;;13.20;99.90;;;;;;4788549;29;20040;-85
2022/09/11 05:36:18;;;;;;;2.13;1.42;;;13.20;99.90;;;;;;4801523;29;20039;-84
2022/09/11 05:38:44;;;;;;;2.33;1.38;;;13.30;99.90;;;;;;4788358;29;20512;-84
2022/09/11 05:41:12;;;;;;;2.35;0.90;;;13.30;99.90;;;;;;4772214;30;20115;-86
2022/09/11 05:43:39;;;;;;;1.55;0.98;;;13.40;99.90;;;;;;4774780;29;20051;-88
2022/09/11 05:46:06;;;;;;;1.58;0.90;;;13.50;99.90;;;;;;4789267;29;20043;-86
2022/09/11 05:48:34;;;;;;;2.78;2.10;;;14.00;99.90;;;;;;4772687;29;20128;-85
2022/09/11 05:59:19;;;;;;;2.85;1.75;;;13.70;99.90;;;;;;4789090;29;20131;-84
2022/09/11 06:01:46;;;;;;;3.67;2.03;;;13.80;99.90;;;;;;4788261;29;20401;-85
2022/09/11 06:04:12;;;;;;;3.38;2.53;;;13.90;99.90;;;;;;4781705;29;20085;-84
2022/09/11 06:06:38;;;;;;;2.40;1.80;;;14.00;99.90;;;;;;4792296;29;20051;-84
2022/09/11 06:09:06;;;;;;;1.70;1.20;;;14.00;99.90;;;;;;4789099;29;20040;-90
2022/09/11 06:11:32;;;;;;;1.48;1.00;;;14.20;99.90;;;;;;4788347;29;20342;-85
2022/09/11 06:13:59;;;;;;;1.33;0.90;;;14.30;99.90;;;;;;4788785;29;20121;-85
2022/09/11 06:16:24;;;;;;;2.45;1.63;;;14.30;99.90;;;;;;4784903;29;20078;-85
2022/09/11 06:18:53;;;;;;;1.83;1.42;;;14.40;99.90;;;;;;4788415;29;20134;-85
2022/09/11 06:21:21;;;;;;;4.85;2.95;;;14.50;99.90;;;;;;4789277;29;20140;-85
2022/09/11 06:23:48;;;;;;;4.78;2.53;;;14.60;99.90;;;;;;4772783;29;20067;-85
2022/09/11 06:26:22;;;;;;;2.88;1.48;;;14.70;99.90;;;;;;4792410;29;20181;-85
2022/09/11 06:28:49;;;;;;;1.70;1.38;;;14.80;99.90;;;;;;4788526;29;20054;-87
2022/09/11 06:31:23;;;;;;;1.75;1.40;;;14.90;99.90;;;;;;4773175;30;20051;-85
2022/09/11 06:33:50;;;;;;;1.67;0.77;;;15.00;99.90;;;;;;4803561;29;20110;-86
2022/09/11 06:36:22;;;;;;;1.40;0.90;;;15.10;99.90;;;;;;4773809;30;20048;-85
2022/09/11 06:38:53;;;;;;;1.67;1.20;;;15.20;99.90;;;;;;4758821;29;20052;-85
2022/09/11 06:41:20;;;;;;;2.30;1.23;;;15.40;99.90;;;;;;4774087;30;20086;-83
2022/09/11 06:43:52;;;;;;;2.20;0.90;;;15.50;99.90;;;;;;4795068;29;20061;-85
2022/09/11 06:46:19;;;;;;;1.05;0.80;;;15.60;99.90;;;;;;4783241;29;20673;-86
2022/09/11 06:48:47;;;;;;;1.27;0.60;;;15.70;99.90;;;;;;4784449;29;20086;-87
2022/09/11 06:51:16;;;;;;;1.38;0.70;;;15.60;99.90;;;;;;4779291;30;20055;-85
2022/09/11 06:53:42;;;;;;;1.00;0.90;;;15.90;99.90;;;;;;4784483;30;20043;-86
2022/09/11 06:56:13;;;;;;;1.33;0.80;;;16.20;99.90;;;;;;4798241;29;20046;-84
2022/09/11 06:58:44;;;;;;;1.17;0.60;;;16.00;99.90;;;;;;4777827;29;20520;-85
2022/09/11 07:01:15;;;;;;;0.63;0.57;;;16.30;99.90;;;;;;4779090;30;20405;-85
2022/09/11 07:03:43;;;;;;;0.98;0.70;;;16.40;99.90;;;;;;4797519;29;20047;-83
2022/09/11 07:06:10;;;;;;;1.67;0.70;;;16.50;99.90;;;;;;4796794;29;20039;-85
2022/09/11 07:08:35;;;;;;;1.05;0.80;;;16.60;99.90;;;;;;4793242;29;20114;-84
2022/09/11 07:11:03;;;;;;;1.30;0.95;;;16.70;99.90;;;;;;4786913;29;20074;-84
2022/09/11 07:13:31;;;;;;;1.55;0.73;;;16.90;99.90;;;;;;4795210;29;20050;-85
2022/09/11 07:16:05;;;;;;;0.70;0.50;;;17.00;99.90;;;;;;4810243;29;20111;-85
2022/09/11 07:18:39;;;;;;;1.10;0.73;;;17.10;99.90;;;;;;4816707;29;20047;-83
2022/09/11 07:21:11;;;;;;;1.52;0.55;;;17.20;99.90;;;;;;4788759;29;20051;-84
2022/09/11 07:23:38;;;;;;;2.60;1.98;;;17.30;99.90;;;;;;4804974;29;20059;-86
2022/09/11 07:26:06;;;;;;;2.72;1.92;;;17.50;99.90;;;;;;4790045;29;20047;-85
2022/09/11 07:28:33;;;;;;;2.10;1.48;;;17.60;99.90;;;;;;4792334;30;20058;-84
2022/09/11 07:31:19;;;;;;;1.60;1.00;;;17.70;99.90;;;;;;4791323;29;20058;-84
2022/09/11 07:33:49;;;;;;;1.75;0.80;;;17.80;99.90;;;;;;4802533;24;20050;-87
2022/09/11 07:36:17;;;;;;;3.03;0.77;;;17.90;99.90;;;;;;4804386;29;20136;-86
2022/09/11 07:38:56;;;;;;;1.48;0.60;;;18.10;99.90;;;;;;4802419;30;20062;-87
2022/09/11 07:41:24;;;;;;;1.73;0.68;;;18.20;99.90;;;;;;4802742;30;20055;-84
2022/09/11 07:43:55;;;;;;;1.75;0.90;;;18.40;99.90;;;;;;4801670;29;20059;-85
2022/09/11 07:46:21;;;;;;;0.98;0.73;;;18.50;99.90;;;;;;4802393;30;20066;-86
2022/09/11 07:49:25;;;;;;;1.70;0.93;;;18.60;99.90;;;;;;4802293;30;20213;-88
2022/09/11 08:05:28;;;;;;;;;;;;;;;;;;;;;
2022/09/11 08:13:11;;;;;;;2.10;0.80;;;19.60;99.90;;;;;;4642995;30;20063;-88
2022/09/11 08:31:37;;;;;;;1.08;0.60;;;20.40;99.90;;;;;;5191412;27;20134;-88
2022/09/11 08:34:52;;;;;;;;;;;;;;;;;;;;;
2022/09/11 08:38:32;;;;;;;;;;;;;;;;;;;;;
2022/09/11 08:41:27;;;;;;;1.13;0.40;;;20.70;99.90;;;;;;5153844;27;20137;-89
2022/09/11 08:50:38;;;;;;;3.13;0.90;;;21.60;99.90;;;;;;5027553;28;20112;-88
2022/09/11 08:53:55;;;;;;;;;;;;;;;;;;;;;
2022/09/11 08:56:52;;;;;;;3.33;1.40;;;22.70;99.90;;;;;;5006268;28;20085;-89
2022/09/11 08:59:53;;;;;;;1.88;0.40;;;22.40;99.90;;;;;;5013299;28;20546;-90
2022/09/11 09:10:32;;;;;;;1.52;0.43;;;22.00;99.90;;;;;;5007376;28;20569;-88
2022/09/11 09:17:15;;;;;;;;;;;;;;;;;;;;;
2022/09/11 09:20:22;;;;;;;2.05;0.70;;;22.30;99.90;;;;;;4876411;29;20564;-89
2022/09/11 09:23:27;;;;;;;1.42;0.40;;;22.50;99.90;;;;;;4912757;29;20106;-88
2022/09/11 09:26:54;;;;;;;1.60;0.40;;;22.80;99.90;;;;;;4979222;22;20048;-88
2022/09/11 09:29:42;;;;;;;0.85;0.35;;;23.00;99.90;;;;;;5084772;28;20078;-90
2022/09/11 09:33:05;;;;;;;;;;;;;;;;;;;;;
2022/09/11 09:36:11;;;;;;;2.10;0.40;;;22.80;99.90;;;;;;5072911;28;20196;-90
2022/09/11 09:43:15;;;;;;;0.30;0.30;;;22.60;99.90;;;;;;4903219;29;20052;-88
2022/09/11 09:46:12;;;;;;;1.35;0.40;;;22.30;99.90;;;;;;4901541;29;20083;-89
2022/09/11 09:48:56;;;;;;;1.20;0.32;;;22.00;99.90;;;;;;4877087;29;20056;-89
2022/09/11 09:59:13;;;;;;;3.00;0.70;;;21.70;99.90;;;;;;5005308;22;20109;-89
2022/09/11 10:01:45;;;;;;;2.42;0.65;;;21.40;99.90;;;;;;5098260;28;20124;-92
2022/09/11 10:04:21;;;;;;;1.35;0.50;;;21.40;99.90;;;;;;5094411;28;20043;-89
2022/09/11 10:07:09;;;;;;;1.70;0.55;;;21.40;99.90;;;;;;5085515;28;20048;-87
2022/09/11 10:09:44;;;;;;;0.93;0.43;;;21.20;99.90;;;;;;5093095;28;20381;-87
2022/09/11 10:12:19;;;;;;;1.85;0.57;;;21.30;99.90;;;;;;5086693;28;20044;-87
2022/09/11 10:15:02;;;;;;;1.65;0.80;;;21.20;99.90;;;;;;5089050;28;20511;-88
2022/09/11 10:17:31;;;;;;;2.75;0.60;;;21.30;99.90;;;;;;5092099;28;20044;-87
2022/09/11 10:20:17;;;;;;;2.13;0.60;;;21.30;99.90;;;;;;5076578;28;20036;-87
2022/09/11 10:22:44;;;;;;;1.40;0.50;;;21.30;99.90;;;;;;5093263;28;20048;-88
2022/09/11 10:25:16;;;;;;;0.60;0.40;;;21.30;99.90;;;;;;5092850;28;20046;-88
2022/09/11 10:28:11;;;;;;;0.60;0.60;;;21.40;99.90;;;;;;5094432;28;20048;-88
2022/09/11 10:30:40;;;;;;;1.88;0.68;;;21.40;99.90;;;;;;5089901;28;20338;-88
2022/09/11 10:33:36;;;;;;;0.55;0.40;;;21.40;99.90;;;;;;5093637;28;20818;-87
2022/09/11 10:36:04;;;;;;;1.10;0.75;;;21.50;99.90;;;;;;5076178;28;20059;-88
2022/09/11 10:43:59;;;;;;;0.82;0.50;;;21.50;99.90;;;;;;5111218;22;20055;-93
2022/09/11 10:46:36;;;;;;;0.55;0.30;;;21.60;99.90;;;;;;5074297;28;20946;-90
2022/09/11 10:49:04;;;;;;;1.13;0.40;;;21.60;99.90;;;;;;5109804;28;20039;-92
2022/09/11 10:51:41;;;;;;;3.25;0.50;;;21.70;99.90;;;;;;5095968;28;20476;-94
2022/09/11 10:57:33;;;;;;;1.83;0.30;;;21.90;99.90;;;;;;5356472;22;20050;-90
2022/09/11 11:00:19;;;;;;;0.73;0.30;;;22.20;99.90;;;;;;5144014;27;20102;-90
2022/09/11 11:03:04;;;;;;;1.40;0.30;;;22.50;99.90;;;;;;5154186;27;20034;-91
2022/09/11 11:05:34;;;;;;;0.90;0.40;;;22.60;99.90;;;;;;5138653;27;20060;-91
2022/09/11 11:08:25;;;;;;;1.90;0.55;;;23.00;99.90;;;;;;5172032;27;20038;-90
2022/09/11 11:11:02;;;;;;;0.70;0.30;;;23.20;99.90;;;;;;5147706;27;20166;-94
2022/09/11 11:13:57;;;;;;;0.68;0.30;;;23.70;99.90;;;;;;5153805;27;20539;-92
2022/09/11 11:16:35;;;;;;;3.10;0.40;;;24.20;99.90;;;;;;5134437;27;20066;-93
2022/09/11 11:19:26;;;;;;;0.68;0.22;;;24.50;99.90;;;;;;5172209;27;20043;-93
2022/09/11 11:29:29;;;;;;;1.95;0.35;;;23.70;99.90;;;;;;5162684;27;20052;-91
2022/09/11 11:32:04;;;;;;;0.70;0.40;;;23.40;99.90;;;;;;5173701;27;20035;-94
2022/09/11 11:35:10;;;;;;;;;;;;;;;;;;;;;
2022/09/11 11:41:34;;;;;;;0.70;0.57;;;22.50;99.90;;;;;;5163875;27;20052;-87
2022/09/11 11:44:08;;;;;;;1.35;0.93;;;22.30;99.90;;;;;;5165426;27;20040;-93
2022/09/11 11:46:44;;;;;;;1.67;0.50;;;22.10;99.90;;;;;;5153784;27;20110;-90
2022/09/11 11:49:30;;;;;;;1.83;0.50;;;21.80;99.90;;;;;;5169638;27;20043;-90
2022/09/11 11:52:12;;;;;;;0.65;0.47;;;21.90;99.90;;;;;;5157782;27;20050;-89
2022/09/11 11:55:01;;;;;;;1.25;0.70;;;21.80;99.90;;;;;;5155476;27;20107;-92
2022/09/11 11:57:40;;;;;;;0.73;0.50;;;21.70;99.90;;;;;;5172776;27;20051;-94
2022/09/11 12:00:15;;;;;;;2.10;0.50;;;21.50;99.90;;;;;;5148451;27;20051;-89
2022/09/11 12:03:08;;;;;;;2.53;0.50;;;21.40;99.90;;;;;;5166381;27;20054;-94
2022/09/11 12:05:55;;;;;;;1.40;0.40;;;21.30;99.90;;;;;;5181654;27;20049;-94
2022/09/11 12:08:31;;;;;;;0.77;0.60;;;21.30;99.90;;;;;;5153706;27;20046;-91
2022/09/11 12:11:04;;;;;;;1.25;0.50;;;21.20;99.90;;;;;;5146188;27;20371;-93
2022/09/11 12:13:46;;;;;;;2.20;0.40;;;21.20;99.90;;;;;;5141330;27;20027;-92
2022/09/11 12:16:27;;;;;;;1.02;0.40;;;21.10;99.90;;;;;;5130886;27;20099;-90
2022/09/11 12:19:03;;;;;;;1.45;0.50;;;21.10;99.90;;;;;;5143451;27;20041;-93
2022/09/11 12:21:34;;;;;;;2.60;0.47;;;21.10;99.90;;;;;;5140840;27;20053;-90
2022/09/11 12:24:08;;;;;;;1.65;0.40;;;21.10;99.90;;;;;;5147345;28;20039;-92
2022/09/11 12:26:37;;;;;;;0.30;0.30;;;21.10;99.90;;;;;;5166962;27;20080;-89
2022/09/11 12:29:13;;;;;;;1.20;0.47;;;21.00;99.90;;;;;;5163333;27;20099;-89
2022/09/11 12:32:19;;;;;;;0.82;0.40;;;21.20;99.90;;;;;;5162615;27;20074;-88
2022/09/11 12:34:47;;;;;;;0.63;0.47;;;21.90;99.90;;;;;;5070339;28;20063;-90
2022/09/11 12:37:30;;;;;;;1.00;0.30;;;21.70;99.90;;;;;;5086401;28;20051;-91
2022/09/11 12:40:10;;;;;;;0.75;0.50;;;22.00;99.90;;;;;;5094183;28;20051;-87
2022/09/11 12:42:44;;;;;;;1.25;0.43;;;22.90;99.90;;;;;;5077802;28;20061;-90
2022/09/11 12:45:35;;;;;;;1.05;0.50;;;22.50;99.90;;;;;;5070762;28;20075;-94
2022/09/11 12:48:04;;;;;;;4.78;0.73;;;22.80;99.90;;;;;;5011294;28;20077;-92
2022/09/11 12:50:33;;;;;;;0.90;0.40;;;22.90;99.90;;;;;;5035267;28;20097;-89
2022/09/11 12:53:03;;;;;;;0.70;0.35;;;23.10;99.90;;;;;;5022902;28;20088;-92
2022/09/11 12:55:38;;;;;;;0.93;0.55;;;23.40;99.90;;;;;;5030848;28;20046;-90
2022/09/11 12:58:33;;;;;;;0.60;0.50;;;23.40;99.90;;;;;;5016379;28;20041;-89
2022/09/11 13:01:19;;;;;;;0.77;0.40;;;23.50;99.90;;;;;;5014997;28;20046;-94
2022/09/11 13:03:49;;;;;;;;;;;23.80;99.90;;;;;;5004657;28;20078;-92
2022/09/11 13:10:26;;;;;;;0.63;0.50;;;24.10;99.90;;;;;;5004463;28;20098;-92
2022/09/11 13:12:57;;;;;;;1.42;0.40;;;24.30;99.90;;;;;;5084077;28;20055;-92
2022/09/11 13:15:41;;;;;;;2.30;0.30;;;24.60;99.90;;;;;;5061658;28;20123;-94
2022/09/11 13:18:41;;;;;;;2.80;0.50;;;24.70;99.90;;;;;;5094234;28;20044;-93
2022/09/11 13:21:20;;;;;;;;;;;;;;;;;;;;;
2022/09/11 13:23:50;;;;;;;0.93;0.30;;;24.90;99.90;;;;;;5045044;28;20055;-93
2022/09/11 13:26:32;;;;;;;1.42;0.40;;;25.00;99.90;;;;;;5092802;28;20094;-91
2022/09/11 13:28:59;;;;;;;0.70;0.30;;;25.10;99.90;;;;;;5070743;28;20040;-94
2022/09/11 13:31:55;;;;;;;;;;;;;;;;;;;;;
2022/09/11 13:34:30;;;;;;;0.65;0.30;;;25.20;99.90;;;;;;5063739;28;20047;-93
2022/09/11 13:36:57;;;;;;;0.82;0.28;;;25.40;99.90;;;;;;5089220;28;20512;-93
2022/09/11 13:39:35;;;;;;;;;;;;;;;;;;;;;
2022/09/11 13:42:11;;;;;;;1.38;0.40;;;25.60;99.90;;;;;;5030963;28;20083;-92
2022/09/11 13:44:50;;;;;;;1.42;0.35;;;26.00;99.90;;;;;;5079316;28;20056;-92
2022/09/11 13:47:39;;;;;;;;;;;;;;;;;;;;;
2022/09/11 13:50:25;;;;;;;;;;;;;;;;;;;;;
2022/09/11 13:53:16;;;;;;;1.25;0.50;;;26.30;98.10;;;;;;5064876;28;20060;-91
2022/09/11 13:55:49;;;;;;;0.80;0.32;;;26.40;98.60;;;;;;5101308;22;20055;-92
2022/09/11 13:58:33;;;;;;;0.85;0.32;;;26.40;98.10;;;;;;5101320;22;20106;-92
2022/09/11 14:11:45;;;;;;;1.35;0.40;;;26.20;97.70;;;;;;5095522;28;20070;-89
2022/09/11 14:14:24;;;;;;;0.82;0.30;;;26.20;97.00;;;;;;5069701;28;20048;-91
2022/09/11 14:16:54;;;;;;;0.32;0.30;;;26.00;97.10;;;;;;5092049;28;20040;-91
2022/09/11 14:19:26;;;;;;;0.70;0.40;;;25.70;97.90;;;;;;5074854;28;20044;-92
2022/09/11 14:21:51;;;;;;;0.60;0.40;;;25.10;98.20;;;;;;5092529;28;20066;-90
2022/09/11 14:24:32;;;;;;;1.02;0.47;;;24.70;98.70;;;;;;5268054;22;20055;-93
2022/09/11 14:27:00;;;;;;;1.60;0.47;;;24.30;99.70;;;;;;5094337;28;20051;-91
2022/09/11 14:29:37;;;;;;;4.85;0.60;;;23.90;99.90;;;;;;5076562;28;20542;-91
2022/09/11 14:32:33;;;;;;;0.90;0.40;;;23.40;99.90;;;;;;5094970;28;20126;-89
2022/09/11 14:35:00;;;;;;;1.20;0.50;;;23.20;99.90;;;;;;5098119;28;20039;-92
2022/09/11 14:37:52;;;;;;;1.15;0.40;;;23.10;99.90;;;;;;5095434;28;20046;-91
2022/09/11 14:40:18;;;;;;;1.15;0.35;;;23.00;99.90;;;;;;5074901;28;20104;-92
2022/09/11 14:42:47;;;;;;;0.60;0.30;;;22.80;99.90;;;;;;5077861;28;20055;-94
2022/09/11 17:00:27;;;;;;;0.50;0.30;;;20.80;99.90;;;;;;4768195;30;20052;-89
2022/09/11 17:03:09;;;;;;;0.90;0.30;;;20.70;99.90;;;;;;4750297;30;20063;-88
2022/09/11 17:05:43;;;;;;;0.45;0.30;;;20.70;99.90;;;;;;4742838;30;20059;-87
2022/09/11 17:09:17;;;;;;;0.82;0.30;;;20.70;99.90;;;;;;4755379;30;20150;-87
2022/09/11 17:11:47;;;;;;;0.65;0.40;;;20.50;99.90;;;;;;4678698;30;20056;-87
2022/09/11 17:14:15;;;;;;;0.60;0.40;;;20.40;99.90;;;;;;4685376;30;20054;-86
2022/09/11 17:16:41;;;;;;;0.80;0.30;;;20.40;99.90;;;;;;4703147;30;20423;-86
2022/09/11 17:20:04;;;;;;;2.13;0.30;;;20.90;99.90;;;;;;4684861;30;20079;-89
2022/09/11 17:22:30;;;;;;;0.32;0.30;;;20.20;99.90;;;;;;4582459;31;20060;-88
2022/09/11 17:24:55;;;;;;;0.63;0.30;;;20.00;99.90;;;;;;4579384;31;20443;-87
2022/09/11 17:27:27;;;;;;;0.60;0.40;;;20.00;99.90;;;;;;4580852;31;20064;-88
2022/09/11 17:29:52;;;;;;;0.20;0.20;;;20.00;99.90;;;;;;4598401;31;20527;-86
2022/09/11 17:32:20;;;;;;;0.32;0.25;;;19.80;99.90;;;;;;4565319;31;20076;-88
2022/09/11 17:34:50;;;;;;;0.50;0.28;;;19.70;99.90;;;;;;4583957;31;20082;-88
2022/09/11 17:38:03;;;;;;;0.90;0.30;;;19.50;99.90;;;;;;4594416;31;20072;-88
2022/09/11 17:41:07;;;;;;;0.73;0.38;;;19.40;99.90;;;;;;4579991;31;20069;-88
2022/09/11 17:43:37;;;;;;;1.27;0.38;;;19.40;99.90;;;;;;4605888;30;20396;-87
2022/09/11 17:46:11;;;;;;;0.95;0.40;;;19.20;99.90;;;;;;4602985;31;20074;-88
2022/09/11 17:48:38;;;;;;;0.20;0.20;;;19.10;99.90;;;;;;4620292;31;20052;-87
2022/09/11 17:51:10;;;;;;;0.52;0.30;;;19.10;99.90;;;;;;4623746;31;20542;-86
2022/09/11 17:53:49;;;;;;;0.60;0.35;;;19.00;99.90;;;;;;4608358;31;20142;-89